Shin-oh Maru — JG5594 — position and weather

sailwx.info

Track history (hours):
 
Tides and Currents Weather Stations Pressure Air Temp Water Temp Dewpoint Dewpoint Depression Visibility Wind Speed Wind Dir Waves Ship Positions

Shin-oh Maru

Last reported at 2015-May-24 23:28 UTC. Time now 2015-May-26 13:42 UTC.
Position N 36°44' E 141°21'.

Length 161 m; draft 7 m.

Type: Ship (hazmat cat A). MMSI: 431100859.

Date/timePositionNaut miles runAvg speedWind from/ knotsBaromVisibWave heightAir tempDewpointWater temp
2015-May-24 23:28N 36°44' E 141°21'1717.6
2015-May-24 22:29N 36°28' E 141°15'1617.3
2015-May-24 21:33N 36°12' E 141°13'1817.8
2015-May-24 20:33N 35°54' E 141°08'1817.8
2015-May-24 19:33N 35°37' E 141°04'1919.1
2015-May-24 18:33N 35°24' E 140°47'2320.5
2015-May-24 17:27N 35°07' E 140°28'1618.2
2015-May-24 16:33N 34°57' E 140°13'1817.8
2015-May-24 15:31N 34°51' E 139°51'1616.4
2015-May-24 14:33N 35°06' E 139°43'1414.1
2015-May-24 13:34N 35°20' E 139°42'1515.3
2015-May-24 12:33N 35°34' E 139°49'4 4.0
2015-May-24 11:28N 35°38' E 139°46'0 0.0
2015-May-24 10:19N 35°38' E 139°46'0 0.0
2015-May-24 09:31N 35°38' E 139°46'0 0.0
2015-May-24 08:33N 35°38' E 139°46'9 9.5
2015-May-24 07:33N 35°30' E 139°52'1414.2
2015-May-24 06:34N 35°17' E 139°45'1414.1
2015-May-24 05:33N 35°03' E 139°45'1614.9
2015-May-24 04:29N 34°50' E 139°56'1718.5
2015-May-24 03:33N 34°58' E 140°15'2017.8
2015-May-24 02:26N 35°11' E 140°33'1616.4
2015-May-24 01:27N 35°24' E 140°45'1516.9
2015-May-24 00:33N 35°37' E 140°56'4318.0
2015-May-23 22:09N 36°18' E 141°11'3318.6
2015-May-23 20:22N 36°50' E 141°21'28 0.6
2015-May-21 23:04N 36°23' E 141°14'1018.9
2015-May-21 22:33N 36°14' E 141°11'1918.9
2015-May-21 21:33N 35°55' E 141°06'1919.0
2015-May-21 20:33N 35°37' E 140°60'2121.3
2015-May-21 19:33N 35°19' E 140°45'2120.5
2015-May-21 18:32N 35°04' E 140°28'1919.1
2015-May-21 17:33N 34°55' E 140°08'1818.0
2015-May-21 16:33N 34°51' E 139°46'1818.1
2015-May-21 15:33N 35°09' E 139°45'1414.2
2015-May-21 14:34N 35°23' E 139°42'1313.3
2015-May-21 13:33N 35°36' E 139°46'1 1.3
2015-May-21 12:33N 35°38' E 139°46'0 0.0
2015-May-21 11:27N 35°38' E 139°46'0 0.0
2015-May-21 10:33N 35°38' E 139°46'0 0.0
2015-May-21 09:24N 35°38' E 139°46'0 0.0
2015-May-21 08:34N 35°38' E 139°46'6 6.4
2015-May-21 07:34N 35°33' E 139°51'1515.0
2015-May-21 06:33N 35°19' E 139°44'1414.1
2015-May-21 05:33N 35°05' E 139°45'1814.6
2015-May-21 04:18N 34°49' E 139°57'1318.0
2015-May-21 03:33N 34°56' E 140°11'1918.0
2015-May-21 02:31N 35°07' E 140°30'2016.7
2015-May-21 01:19N 35°23' E 140°44'  
2015-May-18 20:21N 35°28' E 140°53'2120.5
2015-May-18 19:18N 35°12' E 140°36'1520.0
2015-May-18 18:33N 35°01' E 140°23'1919.3
2015-May-18 17:33N 34°51' E 140°03'1716.6
2015-May-18 16:33N 34°55' E 139°43'1818.6
2015-May-18 15:34N 35°14' E 139°46'1313.0
2015-May-18 14:33N 35°27' E 139°47'1110.9
2015-May-18 13:33N 35°38' E 139°46'0 0.0
2015-May-18 12:31N 35°38' E 139°46'0 0.0
2015-May-18 11:31N 35°38' E 139°46'0 0.0
2015-May-18 10:31N 35°38' E 139°46'0 0.0
2015-May-18 09:22N 35°38' E 139°46'0 0.0
2015-May-18 08:32N 35°38' E 139°46'7 7.3
2015-May-18 07:33N 35°33' E 139°52'1515.2
2015-May-18 06:33N 35°19' E 139°44'1515.1
2015-May-18 05:32N 35°03' E 139°45'1614.4
2015-May-18 04:24N 34°50' E 139°56'1618.6
2015-May-18 03:33N 34°58' E 140°13'2117.8
2015-May-18 02:22N 35°11' E 140°32'1417.3
2015-May-18 01:33N 35°23' E 140°43'1717.1
2015-May-18 00:32N 35°37' E 140°55'2518.3
2015-May-17 23:11N 36°00' E 141°06'1218.7
2015-May-17 22:31N 36°12' E 141°09'1818.6
2015-May-17 21:32N 36°30' E 141°14'1818.8
2015-May-17 20:33N 36°48' E 141°20'1918.8
2015-May-17 19:33N 37°06' E 141°25'83 1.8
2015-May-15 21:23N 35°46' E 141°03'1920.0
2015-May-15 20:26N 35°29' E 140°51'2121.0
2015-May-15 19:26N 35°12' E 140°36'1819.8
2015-May-15 18:32N 35°01' E 140°19'1919.4
2015-May-15 17:32N 34°50' E 139°59'1616.4
2015-May-15 16:33N 34°58' E 139°43'1717.3
2015-May-15 15:33N 35°15' E 139°46'1212.5
2015-May-15 14:33N 35°28' E 139°48'1010.2
2015-May-15 13:33N 35°38' E 139°46'0 0.0
2015-May-15 12:31N 35°38' E 139°46'0 0.0
2015-May-15 11:25N 35°38' E 139°46'0 0.0
2015-May-15 10:25N 35°38' E 139°46'0 0.0
2015-May-15 09:25N 35°38' E 139°46'0 0.0
2015-May-15 08:31N 35°38' E 139°46'0 0.0
2015-May-15 07:31N 35°38' E 139°46'0 0.0
2015-May-15 06:31N 35°38' E 139°46'0 0.0
2015-May-15 05:25N 35°38' E 139°46'0 0.0
2015-May-15 04:28N 35°38' E 139°46'0 0.0
2015-May-15 03:28N 35°38' E 139°46'1 0.9
2015-May-15 02:34N 35°37' E 139°46'7 5.5
2015-May-15 01:21N 35°33' E 139°53'0 0.0
2015-May-15 00:33N 35°33' E 139°53'  
Track history (hours):
 
Tides and Currents Weather Stations Pressure Air Temp Water Temp Dewpoint Dewpoint Depression Visibility Wind Speed Wind Dir Waves Ship Positions

Shin-oh Maru

Last reported at 2015-May-24 23:28 UTC. Time now 2015-May-26 13:42 UTC.
Position N 36°44' E 141°21'.

Length 161 m; draft 7 m.

Type: Ship (hazmat cat A). MMSI: 431100859.

Date/timePositionNaut miles runAvg speedWind from/ knotsBaromVisibWave heightAir tempDewpointWater temp
2015-May-24 23:28N 36°44' E 141°21'1717.6
2015-May-24 22:29N 36°28' E 141°15'1617.3
2015-May-24 21:33N 36°12' E 141°13'1817.8
2015-May-24 20:33N 35°54' E 141°08'1817.8
2015-May-24 19:33N 35°37' E 141°04'1919.1
2015-May-24 18:33N 35°24' E 140°47'2320.5
2015-May-24 17:27N 35°07' E 140°28'1618.2
2015-May-24 16:33N 34°57' E 140°13'1817.8
2015-May-24 15:31N 34°51' E 139°51'1616.4
2015-May-24 14:33N 35°06' E 139°43'1414.1
2015-May-24 13:34N 35°20' E 139°42'1515.3
2015-May-24 12:33N 35°34' E 139°49'4 4.0
2015-May-24 11:28N 35°38' E 139°46'0 0.0
2015-May-24 10:19N 35°38' E 139°46'0 0.0
2015-May-24 09:31N 35°38' E 139°46'0 0.0
2015-May-24 08:33N 35°38' E 139°46'9 9.5
2015-May-24 07:33N 35°30' E 139°52'1414.2
2015-May-24 06:34N 35°17' E 139°45'1414.1
2015-May-24 05:33N 35°03' E 139°45'1614.9
2015-May-24 04:29N 34°50' E 139°56'1718.5
2015-May-24 03:33N 34°58' E 140°15'2017.8
2015-May-24 02:26N 35°11' E 140°33'1616.4
2015-May-24 01:27N 35°24' E 140°45'1516.9
2015-May-24 00:33N 35°37' E 140°56'4318.0
2015-May-23 22:09N 36°18' E 141°11'3318.6
2015-May-23 20:22N 36°50' E 141°21'28 0.6
2015-May-21 23:04N 36°23' E 141°14'1018.9
2015-May-21 22:33N 36°14' E 141°11'1918.9
2015-May-21 21:33N 35°55' E 141°06'1919.0
2015-May-21 20:33N 35°37' E 140°60'2121.3
2015-May-21 19:33N 35°19' E 140°45'2120.5
2015-May-21 18:32N 35°04' E 140°28'1919.1
2015-May-21 17:33N 34°55' E 140°08'1818.0
2015-May-21 16:33N 34°51' E 139°46'1818.1
2015-May-21 15:33N 35°09' E 139°45'1414.2
2015-May-21 14:34N 35°23' E 139°42'1313.3
2015-May-21 13:33N 35°36' E 139°46'1 1.3
2015-May-21 12:33N 35°38' E 139°46'0 0.0
2015-May-21 11:27N 35°38' E 139°46'0 0.0
2015-May-21 10:33N 35°38' E 139°46'0 0.0
2015-May-21 09:24N 35°38' E 139°46'0 0.0
2015-May-21 08:34N 35°38' E 139°46'6 6.4
2015-May-21 07:34N 35°33' E 139°51'1515.0
2015-May-21 06:33N 35°19' E 139°44'1414.1
2015-May-21 05:33N 35°05' E 139°45'1814.6
2015-May-21 04:18N 34°49' E 139°57'1318.0
2015-May-21 03:33N 34°56' E 140°11'1918.0
2015-May-21 02:31N 35°07' E 140°30'2016.7
2015-May-21 01:19N 35°23' E 140°44'  
2015-May-18 20:21N 35°28' E 140°53'2120.5
2015-May-18 19:18N 35°12' E 140°36'1520.0
2015-May-18 18:33N 35°01' E 140°23'1919.3
2015-May-18 17:33N 34°51' E 140°03'1716.6
2015-May-18 16:33N 34°55' E 139°43'1818.6
2015-May-18 15:34N 35°14' E 139°46'1313.0
2015-May-18 14:33N 35°27' E 139°47'1110.9
2015-May-18 13:33N 35°38' E 139°46'0 0.0
2015-May-18 12:31N 35°38' E 139°46'0 0.0
2015-May-18 11:31N 35°38' E 139°46'0 0.0
2015-May-18 10:31N 35°38' E 139°46'0 0.0
2015-May-18 09:22N 35°38' E 139°46'0 0.0
2015-May-18 08:32N 35°38' E 139°46'7 7.3
2015-May-18 07:33N 35°33' E 139°52'1515.2
2015-May-18 06:33N 35°19' E 139°44'1515.1
2015-May-18 05:32N 35°03' E 139°45'1614.4
2015-May-18 04:24N 34°50' E 139°56'1618.6
2015-May-18 03:33N 34°58' E 140°13'2117.8
2015-May-18 02:22N 35°11' E 140°32'1417.3
2015-May-18 01:33N 35°23' E 140°43'1717.1
2015-May-18 00:32N 35°37' E 140°55'2518.3
2015-May-17 23:11N 36°00' E 141°06'1218.7
2015-May-17 22:31N 36°12' E 141°09'1818.6
2015-May-17 21:32N 36°30' E 141°14'1818.8
2015-May-17 20:33N 36°48' E 141°20'1918.8
2015-May-17 19:33N 37°06' E 141°25'83 1.8
2015-May-15 21:23N 35°46' E 141°03'1920.0
2015-May-15 20:26N 35°29' E 140°51'2121.0
2015-May-15 19:26N 35°12' E 140°36'1819.8
2015-May-15 18:32N 35°01' E 140°19'1919.4
2015-May-15 17:32N 34°50' E 139°59'1616.4
2015-May-15 16:33N 34°58' E 139°43'1717.3
2015-May-15 15:33N 35°15' E 139°46'1212.5
2015-May-15 14:33N 35°28' E 139°48'1010.2
2015-May-15 13:33N 35°38' E 139°46'0 0.0
2015-May-15 12:31N 35°38' E 139°46'0 0.0
2015-May-15 11:25N 35°38' E 139°46'0 0.0
2015-May-15 10:25N 35°38' E 139°46'0 0.0
2015-May-15 09:25N 35°38' E 139°46'0 0.0
2015-May-15 08:31N 35°38' E 139°46'0 0.0
2015-May-15 07:31N 35°38' E 139°46'0 0.0
2015-May-15 06:31N 35°38' E 139°46'0 0.0
2015-May-15 05:25N 35°38' E 139°46'0 0.0
2015-May-15 04:28N 35°38' E 139°46'0 0.0
2015-May-15 03:28N 35°38' E 139°46'1 0.9
2015-May-15 02:34N 35°37' E 139°46'7 5.5
2015-May-15 01:21N 35°33' E 139°53'0 0.0
2015-May-15 00:33N 35°33' E 139°53'  

Dump ship's entire track history